Time;durP1;ratioP1;P1;durP2;ratioP2;P2;SDS_P1;SDS_P2;PMS_P1;PMS_P2;Temp;Humidity;BMP_temperature;BMP_pressure;BME280_temperature;BME280_humidity;BME280_pressure;Samples;Min_cycle;Max_cycle;Signal;HPM_P1;HPM_P2
2021/08/01 00:01:40;;;;;;;10.90;10.00;;;17.30;99.90;;;;;;4879670;29;20432;-78
2021/08/01 00:04:07;;;;;;;11.20;10.20;;;17.30;99.90;;;;;;4875596;29;20223;-77
2021/08/01 00:06:34;;;;;;;10.63;9.53;;;17.30;99.90;;;;;;4873910;29;20216;-78
2021/08/01 00:09:01;;;;;;;11.10;10.07;;;17.20;99.90;;;;;;4875038;29;20201;-77
2021/08/01 00:11:31;;;;;;;10.60;9.70;;;17.20;99.90;;;;;;4879071;29;20218;-78
2021/08/01 00:13:57;;;;;;;10.53;9.47;;;17.20;99.90;;;;;;4879103;29;20823;-78
2021/08/01 00:16:25;;;;;;;10.53;9.73;;;17.10;99.90;;;;;;4881657;29;20212;-77
2021/08/01 00:18:52;;;;;;;11.60;9.77;;;17.10;99.90;;;;;;4882127;29;20215;-78
2021/08/01 00:21:19;;;;;;;9.53;8.63;;;17.10;99.90;;;;;;4878644;29;20212;-78
2021/08/01 00:23:45;;;;;;;9.80;8.90;;;17.10;99.90;;;;;;4880927;29;20225;-78
2021/08/01 00:26:12;;;;;;;10.40;9.37;;;17.10;99.90;;;;;;4883838;29;20213;-78
2021/08/01 00:28:40;;;;;;;11.37;10.33;;;17.10;99.90;;;;;;4875096;29;20723;-77
2021/08/01 00:31:07;;;;;;;11.70;10.50;;;17.10;99.90;;;;;;4880058;29;20216;-78
2021/08/01 00:33:34;;;;;;;12.07;10.73;;;17.10;99.90;;;;;;4881196;29;20217;-77
2021/08/01 00:36:01;;;;;;;10.60;9.50;;;17.00;99.90;;;;;;4878856;29;20208;-77
2021/08/01 00:38:28;;;;;;;10.57;9.53;;;16.90;99.90;;;;;;4877237;29;20288;-77
2021/08/01 00:40:55;;;;;;;10.63;9.70;;;16.80;99.90;;;;;;4877898;29;20274;-78
2021/08/01 00:43:22;;;;;;;11.80;10.70;;;16.70;99.90;;;;;;4893018;23;20228;-79
2021/08/01 00:45:51;;;;;;;10.60;9.73;;;16.60;99.90;;;;;;4907079;29;20213;-79
2021/08/01 00:48:18;;;;;;;11.60;10.53;;;16.60;99.90;;;;;;4904283;29;20201;-79
2021/08/01 00:50:45;;;;;;;11.70;10.43;;;16.50;99.90;;;;;;4908756;29;20744;-80
2021/08/01 00:53:13;;;;;;;11.93;10.93;;;16.50;99.90;;;;;;4904679;29;20296;-79
2021/08/01 00:55:40;;;;;;;11.90;10.90;;;16.40;99.90;;;;;;4903534;29;20226;-79
2021/08/01 00:58:07;;;;;;;10.80;9.80;;;16.40;99.90;;;;;;4904919;29;20213;-79
2021/08/01 01:00:50;;;;;;;11.17;10.07;;;16.30;99.90;;;;;;4904257;29;20201;-79
2021/08/01 01:03:22;;;;;;;10.83;9.73;;;16.30;99.90;;;;;;4904302;29;20214;-80
2021/08/01 01:05:57;;;;;;;11.10;10.00;;;16.30;99.90;;;;;;4908292;29;20670;-78
2021/08/01 01:08:30;;;;;;;11.00;10.20;;;16.30;99.90;;;;;;4903469;29;20196;-79
2021/08/01 01:11:19;;;;;;;6.13;5.60;;;16.20;99.90;;;;;;4908950;29;20195;-79
2021/08/01 01:13:50;;;;;;;9.13;8.03;;;16.20;99.90;;;;;;4910333;29;20243;-79
2021/08/01 01:16:18;;;;;;;8.60;5.70;;;16.10;99.90;;;;;;4907045;29;20224;-79
2021/08/01 01:18:51;;;;;;;10.03;9.20;;;16.10;99.90;;;;;;4896130;29;20210;-79
2021/08/01 01:21:55;;;;;;;7.97;6.10;;;16.10;99.90;;;;;;4905853;29;20726;-79
2021/08/01 01:24:26;;;;;;;8.10;6.63;;;16.10;99.90;;;;;;4873803;29;20228;-78
2021/08/01 01:27:07;;;;;;;6.80;6.10;;;16.00;99.90;;;;;;4894751;29;20204;-78
2021/08/01 01:29:42;;;;;;;8.47;7.20;;;15.90;99.90;;;;;;4909582;29;20564;-79
2021/08/01 01:32:16;;;;;;;11.23;10.23;;;16.00;99.90;;;;;;4905724;29;20563;-79
2021/08/01 01:34:49;;;;;;;7.47;6.87;;;15.90;99.90;;;;;;4903645;29;20682;-79
2021/08/01 01:37:19;;;;;;;9.83;8.97;;;16.00;99.90;;;;;;4903669;29;20617;-79
2021/08/01 01:39:49;;;;;;;11.67;10.57;;;15.90;99.90;;;;;;4908381;29;20241;-78
2021/08/01 01:42:25;;;;;;;10.93;9.87;;;15.80;99.90;;;;;;4905968;29;20689;-78
2021/08/01 01:44:58;;;;;;;9.03;6.37;;;15.70;99.90;;;;;;4898391;29;20228;-78
2021/08/01 01:47:28;;;;;;;10.10;9.23;;;15.80;99.90;;;;;;4906012;29;20207;-79
2021/08/01 01:49:59;;;;;;;11.63;10.03;;;15.80;99.90;;;;;;4908032;29;20196;-78
2021/08/01 01:52:29;;;;;;;7.53;6.37;;;15.80;99.90;;;;;;4907549;29;20196;-78
2021/08/01 01:55:10;;;;;;;10.63;8.80;;;15.80;99.90;;;;;;4896830;29;20318;-78
2021/08/01 01:57:41;;;;;;;7.80;7.00;;;15.80;99.90;;;;;;4901486;29;20329;-78
2021/08/01 02:00:10;;;;;;;12.30;11.20;;;15.80;99.90;;;;;;4905275;29;20275;-78
2021/08/01 02:02:46;;;;;;;10.63;9.77;;;15.70;99.90;;;;;;4906065;29;20224;-78
2021/08/01 02:05:34;;;;;;;10.63;9.73;;;15.70;99.90;;;;;;4899193;29;20202;-79
2021/08/01 02:08:28;;;;;;;11.47;10.50;;;15.70;99.90;;;;;;4895379;29;20211;-79
2021/08/01 02:11:15;;;;;;;11.47;10.57;;;15.60;99.90;;;;;;4901216;29;20211;-79
2021/08/01 02:13:53;;;;;;;10.37;9.37;;;15.60;99.90;;;;;;4906154;29;20223;-78
2021/08/01 02:16:23;;;;;;;11.70;10.73;;;15.60;99.90;;;;;;4904853;29;20287;-78
2021/08/01 02:18:55;;;;;;;11.17;10.27;;;15.60;99.90;;;;;;4907384;29;20699;-78
2021/08/01 02:21:22;;;;;;;11.87;10.87;;;15.60;99.90;;;;;;4900738;29;20200;-78
2021/08/01 02:23:52;;;;;;;11.47;10.60;;;15.60;99.90;;;;;;4907274;29;20224;-79
2021/08/01 02:26:23;;;;;;;8.33;5.13;;;15.70;99.90;;;;;;4905427;29;20200;-79
2021/08/01 02:28:52;;;;;;;5.37;4.30;;;15.70;99.90;;;;;;4900256;29;20209;-78
2021/08/01 02:31:20;;;;;;;6.67;5.70;;;15.70;99.90;;;;;;4904714;29;20206;-78
2021/08/01 02:33:48;;;;;;;6.47;5.33;;;15.70;99.90;;;;;;4898154;29;20696;-79
2021/08/01 02:36:19;;;;;;;6.50;5.60;;;15.70;99.90;;;;;;4906206;29;20189;-78
2021/08/01 02:38:54;;;;;;;6.80;4.93;;;15.60;99.90;;;;;;4905546;29;20615;-76
2021/08/01 02:41:27;;;;;;;6.47;5.17;;;15.60;99.90;;;;;;4904639;29;20256;-78
2021/08/01 02:43:54;;;;;;;7.17;5.13;;;15.60;99.90;;;;;;4905145;29;20225;-77
2021/08/01 02:46:26;;;;;;;8.10;4.70;;;15.60;99.90;;;;;;4902955;29;20861;-79
2021/08/01 02:48:56;;;;;;;11.23;10.33;;;15.50;99.90;;;;;;4893041;29;20351;-79
2021/08/01 02:51:26;;;;;;;12.17;11.27;;;15.50;99.90;;;;;;4898973;29;20292;-78
2021/08/01 02:53:57;;;;;;;11.83;10.93;;;15.50;99.90;;;;;;4892524;29;20208;-79
2021/08/01 02:56:27;;;;;;;11.50;10.63;;;15.50;99.90;;;;;;4907093;29;20228;-77
2021/08/01 02:58:55;;;;;;;7.67;4.80;;;15.50;99.90;;;;;;4882129;29;20190;-77
2021/08/01 03:01:22;;;;;;;6.47;4.97;;;15.50;99.90;;;;;;4894056;29;20200;-77
2021/08/01 03:03:51;;;;;;;7.27;4.43;;;15.40;99.90;;;;;;4894688;29;20232;-77
2021/08/01 03:06:19;;;;;;;6.63;5.30;;;15.40;99.90;;;;;;4896038;29;20200;-77
2021/08/01 03:08:46;;;;;;;6.27;4.40;;;15.40;99.90;;;;;;4888618;29;20207;-77
2021/08/01 03:11:21;;;;;;;6.00;4.47;;;15.40;99.90;;;;;;4900427;29;20215;-77
2021/08/01 03:13:51;;;;;;;6.40;5.80;;;15.40;99.90;;;;;;4901878;29;20226;-77
2021/08/01 03:16:18;;;;;;;5.37;4.63;;;15.40;99.90;;;;;;4904112;29;20206;-77
2021/08/01 03:18:45;;;;;;;7.23;6.57;;;15.30;99.90;;;;;;4899464;29;20200;-77
2021/08/01 03:21:12;;;;;;;9.27;8.57;;;15.30;99.90;;;;;;4904459;29;20303;-77
2021/08/01 03:23:51;;;;;;;10.33;9.53;;;15.30;99.90;;;;;;4900965;29;20220;-77
2021/08/01 03:26:26;;;;;;;8.43;7.70;;;15.30;99.90;;;;;;4895188;29;20231;-78
2021/08/01 03:28:55;;;;;;;6.23;4.53;;;15.20;99.90;;;;;;4891004;29;20197;-79
2021/08/01 03:31:22;;;;;;;4.93;4.30;;;15.20;99.90;;;;;;4891349;29;20208;-78
2021/08/01 03:33:51;;;;;;;7.60;4.47;;;15.10;99.90;;;;;;4891825;29;20208;-78
2021/08/01 03:36:22;;;;;;;8.37;7.77;;;15.20;99.90;;;;;;4907635;29;20201;-78
2021/08/01 03:39:05;;;;;;;5.70;4.27;;;15.20;99.90;;;;;;4901430;29;20567;-78
2021/08/01 03:41:36;;;;;;;6.57;3.90;;;15.20;99.90;;;;;;4905427;29;20211;-78
2021/08/01 03:44:04;;;;;;;6.80;4.20;;;15.20;99.90;;;;;;4895511;29;20224;-78
2021/08/01 03:46:30;;;;;;;4.60;4.00;;;15.20;99.90;;;;;;4907502;29;20564;-78
2021/08/01 03:48:57;;;;;;;4.77;3.93;;;15.20;99.90;;;;;;4905130;29;20280;-78
2021/08/01 03:51:24;;;;;;;5.10;4.03;;;15.10;99.90;;;;;;4892330;29;20208;-77
2021/08/01 03:53:51;;;;;;;5.00;3.87;;;15.10;99.90;;;;;;4884324;29;20787;-77
2021/08/01 03:56:18;;;;;;;5.43;4.00;;;15.10;99.90;;;;;;4879403;29;20313;-78
2021/08/01 03:58:47;;;;;;;5.17;4.27;;;15.00;99.90;;;;;;4881702;29;20643;-77
2021/08/01 04:01:14;;;;;;;8.70;8.10;;;15.00;99.90;;;;;;4882968;29;20204;-78
2021/08/01 04:03:41;;;;;;;6.77;5.60;;;15.00;99.90;;;;;;4881319;29;20288;-78
2021/08/01 04:06:08;;;;;;;6.50;5.80;;;15.10;99.90;;;;;;4878785;29;20231;-78
2021/08/01 04:08:35;;;;;;;8.63;7.87;;;15.10;99.90;;;;;;4880524;29;20205;-78
2021/08/01 04:11:04;;;;;;;9.33;8.60;;;15.00;99.90;;;;;;4904488;29;20216;-79
2021/08/01 04:13:31;;;;;;;7.70;6.90;;;15.10;99.90;;;;;;4902446;29;20215;-78
2021/08/01 04:15:59;;;;;;;6.40;5.23;;;15.10;99.90;;;;;;4916014;29;20226;-79
2021/08/01 04:18:28;;;;;;;5.50;5.00;;;15.10;99.90;;;;;;4903628;29;20209;-79
2021/08/01 04:20:55;;;;;;;5.67;5.17;;;15.10;99.90;;;;;;4909367;29;20669;-79
2021/08/01 04:23:22;;;;;;;6.00;5.30;;;15.10;99.90;;;;;;4899096;29;20311;-79
2021/08/01 04:25:49;;;;;;;6.47;5.80;;;15.10;99.90;;;;;;4899908;29;20265;-79
2021/08/01 04:28:16;;;;;;;7.17;6.30;;;15.10;99.90;;;;;;4899086;29;20400;-79
2021/08/01 04:30:43;;;;;;;5.43;4.87;;;15.00;99.90;;;;;;4910616;29;20196;-79
2021/08/01 04:33:11;;;;;;;5.40;4.93;;;15.10;99.90;;;;;;4901092;29;20198;-79
2021/08/01 04:35:38;;;;;;;7.67;7.03;;;15.00;99.90;;;;;;4898534;29;20620;-79
2021/08/01 04:38:05;;;;;;;7.27;6.60;;;15.00;99.90;;;;;;4891017;29;20291;-78
2021/08/01 04:40:31;;;;;;;7.77;7.07;;;15.10;99.90;;;;;;4896935;29;20659;-77
2021/08/01 04:42:58;;;;;;;5.70;4.87;;;15.10;99.90;;;;;;4914857;29;20235;-77
2021/08/01 04:45:25;;;;;;;5.47;4.30;;;15.10;99.90;;;;;;4903456;29;20228;-77
2021/08/01 04:48:00;;;;;;;5.60;4.50;;;15.20;99.90;;;;;;4901759;29;20197;-81
2021/08/01 04:51:23;;;;;;;;;;;;;;;;;;;;;
2021/08/01 05:01:54;;;;;;;5.03;4.20;;;15.20;99.90;;;;;;4739403;30;20300;-82
2021/08/01 05:04:20;;;;;;;4.40;4.00;;;15.20;99.90;;;;;;4834303;29;20235;-79
2021/08/01 05:06:47;;;;;;;5.63;4.13;;;15.30;99.90;;;;;;4910516;29;20199;-78
2021/08/01 05:09:14;;;;;;;5.73;4.33;;;15.30;99.90;;;;;;4910362;29;20840;-77
2021/08/01 05:11:41;;;;;;;5.67;4.40;;;15.30;99.90;;;;;;4908836;29;20552;-77
2021/08/01 05:14:08;;;;;;;4.43;3.93;;;15.30;99.90;;;;;;4902279;29;20229;-78
2021/08/01 05:16:34;;;;;;;4.77;4.27;;;15.40;99.90;;;;;;4908240;29;20197;-78
2021/08/01 05:19:06;;;;;;;5.17;4.13;;;15.40;99.90;;;;;;4907167;29;20197;-82
2021/08/01 05:21:32;;;;;;;4.90;4.47;;;15.30;99.90;;;;;;4904721;29;20196;-77
2021/08/01 05:24:00;;;;;;;4.30;3.90;;;15.30;99.90;;;;;;4902218;29;20223;-77
2021/08/01 05:26:27;;;;;;;5.07;4.20;;;15.30;99.90;;;;;;4905925;29;20204;-77
2021/08/01 05:28:54;;;;;;;4.60;4.20;;;15.30;99.90;;;;;;4904211;29;20194;-77
2021/08/01 05:31:20;;;;;;;6.17;4.47;;;15.40;99.90;;;;;;4904734;29;20288;-78
2021/08/01 05:33:47;;;;;;;5.37;4.40;;;15.40;99.90;;;;;;4906822;29;20208;-77
2021/08/01 05:36:15;;;;;;;7.37;4.80;;;15.50;99.90;;;;;;4908214;29;20207;-78
2021/08/01 05:38:42;;;;;;;4.60;4.20;;;15.40;99.90;;;;;;4906116;29;20192;-77
2021/08/01 05:41:14;;;;;;;6.10;4.50;;;15.50;99.90;;;;;;4905845;29;20196;-77
2021/08/01 05:43:41;;;;;;;5.53;5.03;;;15.60;99.90;;;;;;4904922;29;20229;-77
2021/08/01 05:46:10;;;;;;;5.40;4.50;;;15.70;99.90;;;;;;4910534;29;20193;-77
2021/08/01 05:48:37;;;;;;;5.00;4.47;;;15.70;99.90;;;;;;4901437;29;20197;-77
2021/08/01 05:51:06;;;;;;;5.53;4.80;;;15.70;99.90;;;;;;4911972;29;20219;-77
2021/08/01 05:53:34;;;;;;;5.27;4.77;;;15.70;99.90;;;;;;4898383;29;20240;-78
2021/08/01 05:56:08;;;;;;;4.87;4.47;;;15.80;99.90;;;;;;4901381;29;20199;-79
2021/08/01 05:58:35;;;;;;;5.23;4.57;;;15.90;99.90;;;;;;4909137;29;20724;-75
2021/08/01 06:01:07;;;;;;;5.33;4.03;;;15.90;99.90;;;;;;4896213;29;20205;-76
2021/08/01 06:03:34;;;;;;;4.80;4.30;;;15.90;99.90;;;;;;4898302;29;20581;-77
2021/08/01 06:06:09;;;;;;;6.63;4.10;;;15.90;99.90;;;;;;4908512;29;20201;-78
2021/08/01 06:09:06;;;;;;;4.97;4.43;;;16.00;99.90;;;;;;4905492;29;20631;-81
2021/08/01 06:11:45;;;;;;;9.60;8.70;;;16.10;99.90;;;;;;4817371;29;20273;-79
2021/08/01 06:14:11;;;;;;;12.30;11.47;;;16.20;99.90;;;;;;4805782;29;20648;-77
2021/08/01 06:16:38;;;;;;;12.10;11.30;;;16.30;99.90;;;;;;4891942;29;20213;-79
2021/08/01 06:19:05;;;;;;;8.10;7.50;;;16.40;99.90;;;;;;4898763;29;20203;-78
2021/08/01 06:21:32;;;;;;;7.50;7.00;;;16.50;99.90;;;;;;4896761;29;20216;-78
2021/08/01 06:23:59;;;;;;;7.67;7.07;;;16.60;99.90;;;;;;4899304;29;20703;-78
2021/08/01 06:26:27;;;;;;;8.00;7.40;;;16.70;99.90;;;;;;4893945;29;20206;-79
2021/08/01 06:28:54;;;;;;;8.13;7.33;;;16.70;99.90;;;;;;4898005;29;20196;-78
2021/08/01 06:31:21;;;;;;;5.43;4.70;;;16.70;99.90;;;;;;4896051;29;20258;-77
2021/08/01 06:33:48;;;;;;;4.87;4.43;;;16.70;99.90;;;;;;4896179;29;20270;-78
2021/08/01 06:36:17;;;;;;;5.50;4.70;;;16.60;99.90;;;;;;4898733;29;20207;-80
2021/08/01 06:38:45;;;;;;;4.87;4.27;;;16.50;99.90;;;;;;4896408;29;20202;-78
2021/08/01 06:41:13;;;;;;;5.07;4.57;;;16.40;99.90;;;;;;4892359;29;20203;-81
2021/08/01 06:43:42;;;;;;;5.07;4.53;;;16.50;99.90;;;;;;4892601;29;20780;-78
2021/08/01 06:46:09;;;;;;;5.67;5.00;;;16.50;99.90;;;;;;4886152;29;20223;-78
2021/08/01 06:48:39;;;;;;;5.33;4.67;;;16.60;99.90;;;;;;4878942;29;20681;-78
2021/08/01 06:51:05;;;;;;;5.40;4.90;;;16.80;99.90;;;;;;4879518;29;20307;-79
2021/08/01 06:53:33;;;;;;;9.40;8.60;;;16.90;99.90;;;;;;4883806;29;20217;-78
2021/08/01 06:56:01;;;;;;;10.03;9.20;;;17.10;99.90;;;;;;4891431;29;20208;-78
2021/08/01 06:58:28;;;;;;;6.67;6.07;;;17.20;99.90;;;;;;4892650;29;20198;-78
2021/08/01 07:03:39;;;;;;;7.87;7.27;;;17.30;99.90;;;;;;4871121;29;20713;-81
2021/08/01 07:06:08;;;;;;;9.07;8.37;;;17.40;99.90;;;;;;4874028;29;20720;-81
2021/08/01 07:08:35;;;;;;;10.57;9.57;;;17.50;99.90;;;;;;4858008;29;20654;-81
2021/08/01 07:11:02;;;;;;;8.37;7.77;;;17.50;99.90;;;;;;4859052;29;20618;-81
2021/08/01 07:13:29;;;;;;;6.57;6.07;;;17.60;99.90;;;;;;4857499;29;20268;-81
2021/08/01 07:16:01;;;;;;;9.80;9.00;;;17.70;99.90;;;;;;4873335;29;20207;-81
2021/08/01 07:18:28;;;;;;;8.43;7.83;;;17.70;99.90;;;;;;4857917;29;20236;-82
2021/08/01 07:20:56;;;;;;;10.77;9.97;;;17.70;99.90;;;;;;4858988;29;20227;-81
2021/08/01 07:23:23;;;;;;;11.00;10.20;;;17.70;99.90;;;;;;4859727;29;20231;-81
2021/08/01 07:25:50;;;;;;;11.03;10.23;;;17.70;99.90;;;;;;4856697;29;20226;-81
2021/08/01 07:28:17;;;;;;;10.30;9.60;;;17.60;99.90;;;;;;4853300;29;20222;-80
2021/08/01 07:30:44;;;;;;;10.97;10.07;;;17.60;99.90;;;;;;4873313;29;20211;-81
2021/08/01 07:33:10;;;;;;;10.50;9.80;;;17.60;99.90;;;;;;4857891;29;20228;-81
2021/08/01 07:35:37;;;;;;;11.00;10.13;;;17.50;99.90;;;;;;4874597;29;20303;-81
2021/08/01 07:38:05;;;;;;;10.83;10.03;;;17.50;99.90;;;;;;4860777;29;20212;-81
2021/08/01 07:40:32;;;;;;;10.60;9.90;;;17.60;99.90;;;;;;4858910;29;20204;-81
2021/08/01 07:42:59;;;;;;;11.10;10.30;;;17.60;99.90;;;;;;4854215;29;20223;-81
2021/08/01 07:45:30;;;;;;;10.80;10.00;;;17.50;99.90;;;;;;4869988;29;20236;-80
2021/08/01 07:47:57;;;;;;;10.50;9.80;;;17.60;99.90;;;;;;4852045;29;20197;-80
2021/08/01 07:50:24;;;;;;;11.43;10.50;;;17.60;99.90;;;;;;4855934;29;20662;-81
2021/08/01 07:52:51;;;;;;;11.57;10.67;;;17.70;99.90;;;;;;4872845;29;20594;-81
2021/08/01 07:55:19;;;;;;;11.30;10.47;;;17.70;99.90;;;;;;4871260;29;20212;-81
2021/08/01 07:57:46;;;;;;;10.90;10.13;;;17.70;99.90;;;;;;4857045;29;20206;-80
2021/08/01 08:00:14;;;;;;;10.70;9.90;;;17.80;99.90;;;;;;4865318;29;20695;-81
2021/08/01 08:02:44;;;;;;;9.40;8.60;;;17.90;99.90;;;;;;4872773;29;20246;-81
2021/08/01 08:05:12;;;;;;;10.70;9.97;;;18.00;99.90;;;;;;4872224;29;20259;-79
2021/08/01 08:07:39;;;;;;;10.00;9.30;;;18.00;99.90;;;;;;4855997;29;20204;-83
2021/08/01 08:10:07;;;;;;;10.83;9.93;;;18.10;99.90;;;;;;4853115;29;20238;-79
2021/08/01 08:12:35;;;;;;;9.07;8.43;;;18.00;99.90;;;;;;4859387;29;20255;-81
2021/08/01 08:15:02;;;;;;;9.40;8.70;;;18.10;99.90;;;;;;4857942;29;20735;-80
2021/08/01 08:17:33;;;;;;;9.27;8.57;;;18.10;99.90;;;;;;4877711;29;20198;-79
2021/08/01 08:20:01;;;;;;;9.07;8.37;;;18.20;99.90;;;;;;4877698;29;20210;-80
2021/08/01 08:22:28;;;;;;;8.80;8.20;;;18.20;99.90;;;;;;4862493;29;20222;-80
2021/08/01 08:24:54;;;;;;;9.90;9.10;;;18.10;99.90;;;;;;4876000;29;20270;-80
2021/08/01 08:27:21;;;;;;;10.50;9.70;;;18.10;99.90;;;;;;4864056;29;20209;-80
2021/08/01 08:29:49;;;;;;;9.90;9.20;;;18.10;99.90;;;;;;4863394;29;20206;-80
2021/08/01 08:32:16;;;;;;;9.67;8.97;;;18.00;99.90;;;;;;4860369;29;20720;-81
2021/08/01 08:34:43;;;;;;;9.27;8.60;;;18.00;99.90;;;;;;4862222;29;20200;-81
2021/08/01 08:37:10;;;;;;;9.83;9.03;;;18.00;99.90;;;;;;4858931;29;20639;-81
2021/08/01 08:39:37;;;;;;;10.87;10.07;;;18.10;99.90;;;;;;4855851;29;20242;-81
2021/08/01 08:42:04;;;;;;;9.70;9.10;;;18.10;99.90;;;;;;4873575;29;20236;-81
2021/08/01 08:44:31;;;;;;;9.77;8.87;;;18.20;99.90;;;;;;4868508;29;20221;-81
2021/08/01 08:46:59;;;;;;;12.70;10.07;;;18.20;99.90;;;;;;4874658;29;20216;-80
2021/08/01 08:49:29;;;;;;;11.40;10.50;;;18.10;99.90;;;;;;4876713;29;20209;-81
2021/08/01 08:51:58;;;;;;;10.03;9.13;;;18.00;99.90;;;;;;4875037;29;20313;-81
2021/08/01 08:54:35;;;;;;;11.63;10.83;;;18.00;99.90;;;;;;4876561;29;20747;-80
2021/08/01 08:57:07;;;;;;;10.97;10.17;;;18.00;99.90;;;;;;4874894;29;20300;-81
2021/08/01 08:59:34;;;;;;;8.73;8.13;;;18.00;99.90;;;;;;4861622;29;20202;-80
2021/08/01 09:02:03;;;;;;;9.50;8.70;;;18.00;99.90;;;;;;4860197;29;20714;-81
2021/08/01 09:04:29;;;;;;;10.80;10.10;;;18.10;99.90;;;;;;4861046;29;20223;-81
2021/08/01 09:06:57;;;;;;;11.27;10.20;;;18.10;99.90;;;;;;4876046;29;20206;-81
2021/08/01 09:09:24;;;;;;;9.30;8.50;;;18.10;99.90;;;;;;4876994;29;20209;-81
2021/08/01 09:11:53;;;;;;;9.70;8.93;;;18.00;99.90;;;;;;4857294;29;20502;-81
2021/08/01 09:14:21;;;;;;;11.33;10.37;;;18.00;99.90;;;;;;4881361;29;20272;-79
2021/08/01 09:16:49;;;;;;;10.07;9.17;;;17.80;99.90;;;;;;4875103;29;20256;-78
2021/08/01 09:19:43;;;;;;;8.37;7.67;;;17.80;99.90;;;;;;4875625;29;20268;-78
2021/08/01 09:22:18;;;;;;;7.80;7.17;;;17.60;99.90;;;;;;4874481;29;20294;-78
2021/08/01 09:24:46;;;;;;;11.27;10.57;;;17.60;99.90;;;;;;4877722;29;20230;-77
2021/08/01 09:27:31;;;;;;;8.43;7.73;;;17.60;99.90;;;;;;4864488;29;20200;-77
2021/08/01 09:29:58;;;;;;;9.63;7.87;;;17.60;99.90;;;;;;4865541;29;20203;-78
2021/08/01 09:32:25;;;;;;;9.70;8.90;;;17.50;99.90;;;;;;4873244;29;20219;-79
2021/08/01 09:34:54;;;;;;;9.10;8.23;;;17.40;99.90;;;;;;4886468;29;20207;-77
2021/08/01 09:37:38;;;;;;;9.10;8.40;;;17.40;99.90;;;;;;4872560;29;20202;-79
2021/08/01 09:40:08;;;;;;;8.83;8.03;;;17.50;99.90;;;;;;4870195;29;20206;-78
2021/08/01 09:42:42;;;;;;;9.27;8.47;;;17.60;99.90;;;;;;4863106;29;20223;-80
2021/08/01 09:45:15;;;;;;;12.07;11.07;;;17.70;99.90;;;;;;4861084;29;20218;-82
2021/08/01 09:47:43;;;;;;;10.27;9.47;;;17.80;99.90;;;;;;4863177;29;20662;-81
2021/08/01 09:50:12;;;;;;;11.43;10.57;;;17.90;99.90;;;;;;4851515;29;20207;-82
2021/08/01 09:52:39;;;;;;;11.30;10.50;;;18.10;99.90;;;;;;4869283;29;20698;-82
2021/08/01 09:55:15;;;;;;;10.37;9.57;;;18.30;99.90;;;;;;4859204;29;20212;-82
2021/08/01 09:57:52;;;;;;;10.37;9.57;;;18.40;99.90;;;;;;4854700;29;20230;-81
2021/08/01 10:00:21;;;;;;;9.50;8.70;;;18.60;99.90;;;;;;4860873;29;20198;-83
2021/08/01 10:02:48;;;;;;;9.17;8.43;;;18.60;99.90;;;;;;4855778;29;20237;-80
2021/08/01 10:05:18;;;;;;;4.50;4.10;;;18.70;99.90;;;;;;4857955;29;20214;-81
2021/08/01 10:07:46;;;;;;;6.87;4.70;;;18.80;99.90;;;;;;4852541;29;20663;-82
2021/08/01 10:10:21;;;;;;;5.20;4.70;;;18.90;99.90;;;;;;4850888;29;20224;-82
2021/08/01 10:12:48;;;;;;;7.13;5.80;;;19.10;99.90;;;;;;4873885;29;20218;-81
2021/08/01 10:15:16;;;;;;;5.73;4.57;;;19.10;99.90;;;;;;4886503;29;20203;-79
2021/08/01 10:17:43;;;;;;;6.77;6.10;;;19.10;99.90;;;;;;4869340;29;20215;-81
2021/08/01 10:20:11;;;;;;;5.60;5.10;;;19.10;99.90;;;;;;4860101;29;20602;-83
2021/08/01 10:22:41;;;;;;;6.13;5.30;;;19.00;99.90;;;;;;4865458;29;20222;-83
2021/08/01 10:25:11;;;;;;;6.63;6.13;;;18.90;99.90;;;;;;4855434;29;20218;-82
2021/08/01 10:27:44;;;;;;;7.90;7.20;;;18.80;99.90;;;;;;4873130;29;20212;-82
2021/08/01 10:30:20;;;;;;;7.60;6.80;;;18.70;99.90;;;;;;4861209;29;20666;-82
2021/08/01 10:32:49;;;;;;;8.37;7.77;;;18.50;99.90;;;;;;4874548;29;20225;-81
2021/08/01 10:35:17;;;;;;;10.20;9.40;;;18.40;99.90;;;;;;4859754;29;20706;-81
2021/08/01 10:37:55;;;;;;;9.00;8.20;;;18.30;99.90;;;;;;4865910;29;20202;-83
2021/08/01 10:40:24;;;;;;;9.03;8.37;;;18.30;99.90;;;;;;4847210;29;20198;-83
2021/08/01 10:42:53;;;;;;;4.80;4.30;;;18.20;99.90;;;;;;4849010;29;20221;-80
2021/08/01 10:45:20;;;;;;;4.33;3.93;;;18.20;99.90;;;;;;4856280;29;20228;-83
2021/08/01 10:47:51;;;;;;;5.97;4.57;;;18.20;99.90;;;;;;4873401;29;20266;-80
2021/08/01 10:50:21;;;;;;;7.10;4.63;;;18.10;99.90;;;;;;4872144;29;20210;-78
2021/08/01 10:52:48;;;;;;;7.87;7.27;;;18.00;99.90;;;;;;4869571;29;20229;-78
2021/08/01 10:55:30;;;;;;;10.20;9.40;;;18.10;99.90;;;;;;4860951;29;20257;-78
2021/08/01 10:58:11;;;;;;;8.57;7.97;;;18.20;99.90;;;;;;4861687;29;20201;-79
2021/08/01 11:00:58;;;;;;;8.17;7.37;;;18.40;99.90;;;;;;4872104;29;20272;-77
2021/08/01 11:03:25;;;;;;;4.90;4.50;;;18.70;99.90;;;;;;4861754;29;20241;-77
2021/08/01 11:05:52;;;;;;;5.20;4.70;;;19.20;99.90;;;;;;4863494;29;20210;-77
2021/08/01 11:08:19;;;;;;;5.90;5.27;;;19.70;99.90;;;;;;4862025;29;20676;-78
2021/08/01 11:10:48;;;;;;;7.70;7.00;;;20.10;99.90;;;;;;4855911;29;20619;-79
2021/08/01 11:13:42;;;;;;;10.93;10.23;;;20.50;99.90;;;;;;4849572;29;20256;-79
2021/08/01 11:16:12;;;;;;;11.10;10.00;;;20.80;99.90;;;;;;4872675;29;20635;-79
2021/08/01 11:18:41;;;;;;;10.00;9.30;;;20.90;99.90;;;;;;4852891;29;20203;-79
2021/08/01 11:21:09;;;;;;;6.57;5.97;;;21.20;99.90;;;;;;4852626;29;20660;-78
2021/08/01 11:24:05;;;;;;;5.50;5.00;;;21.50;99.90;;;;;;4854266;29;20208;-78
2021/08/01 11:26:35;;;;;;;5.47;4.37;;;21.70;99.90;;;;;;4850618;29;20238;-82
2021/08/01 11:29:08;;;;;;;4.97;4.50;;;21.70;99.90;;;;;;4854146;29;20278;-82
2021/08/01 11:31:37;;;;;;;4.83;4.33;;;21.80;99.90;;;;;;4874652;29;20237;-82
2021/08/01 11:34:20;;;;;;;4.77;4.33;;;22.00;99.90;;;;;;4874588;29;20278;-82
2021/08/01 11:36:48;;;;;;;3.90;3.50;;;22.30;99.90;;;;;;4868776;29;20205;-82
2021/08/01 11:39:16;;;;;;;3.97;3.60;;;22.60;99.90;;;;;;4850953;29;20211;-81
2021/08/01 11:41:48;;;;;;;3.90;3.50;;;22.70;99.90;;;;;;4854372;29;20218;-78
2021/08/01 11:44:24;;;;;;;3.87;3.47;;;22.70;99.90;;;;;;4869075;29;20234;-80
2021/08/01 11:47:03;;;;;;;4.23;3.83;;;22.60;99.90;;;;;;4854474;29;20548;-82
2021/08/01 11:49:32;;;;;;;4.50;3.73;;;22.30;99.90;;;;;;4858253;29;20193;-81
2021/08/01 11:52:00;;;;;;;3.90;3.50;;;22.40;99.90;;;;;;4859375;29;20213;-83
2021/08/01 11:54:29;;;;;;;4.93;3.90;;;22.40;99.90;;;;;;4852926;29;20202;-82
2021/08/01 11:57:00;;;;;;;5.03;3.30;;;22.40;99.90;;;;;;4858319;29;20699;-83
2021/08/01 11:59:27;;;;;;;3.50;3.20;;;22.40;99.90;;;;;;4853072;29;20921;-82
2021/08/01 12:01:55;;;;;;;4.50;3.30;;;22.40;99.90;;;;;;4855931;29;20226;-81
2021/08/01 12:04:22;;;;;;;3.70;3.40;;;22.60;99.90;;;;;;4858948;29;20206;-81
2021/08/01 12:06:52;;;;;;;4.47;3.80;;;22.50;99.90;;;;;;4855900;29;20222;-81
2021/08/01 12:09:21;;;;;;;4.07;3.67;;;22.60;99.90;;;;;;4873390;29;20290;-80
2021/08/01 12:11:49;;;;;;;4.40;4.00;;;22.60;99.90;;;;;;4852452;29;20230;-81
2021/08/01 12:14:18;;;;;;;4.07;3.40;;;22.60;99.90;;;;;;4854748;29;20210;-81
2021/08/01 12:16:53;;;;;;;6.00;5.50;;;22.50;99.90;;;;;;4871389;29;20790;-82
2021/08/01 12:19:22;;;;;;;5.37;4.87;;;22.50;99.90;;;;;;4854297;29;20202;-81
2021/08/01 12:21:50;;;;;;;5.80;4.47;;;22.50;99.90;;;;;;4870300;29;20253;-83
2021/08/01 12:24:28;;;;;;;8.90;8.30;;;22.40;99.90;;;;;;4866790;29;20286;-82
2021/08/01 12:26:59;;;;;;;9.13;8.53;;;22.20;99.90;;;;;;4872417;29;20213;-82
2021/08/01 12:29:36;;;;;;;6.87;6.17;;;22.10;99.90;;;;;;4868557;29;20297;-83
2021/08/01 12:32:20;;;;;;;4.10;3.70;;;22.00;99.90;;;;;;4853727;29;20221;-81
2021/08/01 12:34:48;;;;;;;5.10;4.70;;;21.90;99.90;;;;;;4856975;29;20237;-82
2021/08/01 12:37:15;;;;;;;4.97;3.50;;;21.90;99.90;;;;;;4872152;29;20545;-81
2021/08/01 12:39:50;;;;;;;3.60;3.30;;;22.00;99.90;;;;;;4858362;29;20198;-81
2021/08/01 12:42:18;;;;;;;3.70;3.40;;;21.90;99.90;;;;;;4856310;29;20699;-80
2021/08/01 12:44:55;;;;;;;4.07;3.67;;;21.90;99.90;;;;;;4858486;29;20209;-80
2021/08/01 12:47:24;;;;;;;6.63;6.10;;;21.90;99.90;;;;;;4850998;29;20233;-79
2021/08/01 12:49:51;;;;;;;4.53;3.67;;;22.00;99.90;;;;;;4848723;29;20683;-82
2021/08/01 12:52:23;;;;;;;5.03;3.60;;;21.90;99.90;;;;;;4866975;29;20226;-81
2021/08/01 12:54:52;;;;;;;4.33;3.90;;;21.80;99.90;;;;;;4864450;29;20198;-81
2021/08/01 12:57:19;;;;;;;3.90;3.60;;;21.70;99.90;;;;;;4861950;29;20222;-79
2021/08/01 13:00:10;;;;;;;3.40;3.10;;;21.70;99.90;;;;;;4857729;29;20215;-80
2021/08/01 13:05:21;;;;;;;5.63;3.90;;;21.80;99.90;;;;;;4883071;29;20223;-78
2021/08/01 13:07:49;;;;;;;4.07;3.77;;;21.70;99.90;;;;;;4879476;29;20197;-78
2021/08/01 13:10:17;;;;;;;5.57;4.33;;;21.60;99.90;;;;;;4894533;29;20204;-78
2021/08/01 13:13:09;;;;;;;3.77;3.47;;;21.60;99.90;;;;;;4880815;29;20223;-77